createdAt,value
2022-09-07T00:01:00.997Z,3.65
2022-09-07T00:03:29.157Z,3.20
2022-09-07T00:05:57.361Z,3.70
2022-09-07T00:08:27.160Z,5.10
2022-09-07T00:10:57.527Z,4.85
2022-09-07T00:13:27.488Z,4.28
2022-09-07T00:15:56.911Z,3.80
2022-09-07T00:18:25.038Z,3.78
2022-09-07T00:20:59.343Z,3.72
2022-09-07T00:23:29.312Z,4.03
2022-09-07T00:26:01.234Z,3.53
2022-09-07T00:28:29.746Z,3.80
2022-09-07T00:30:59.416Z,3.67
2022-09-07T00:33:27.796Z,3.90
2022-09-07T00:35:55.866Z,3.80
2022-09-07T00:38:23.766Z,3.30
2022-09-07T00:40:51.786Z,3.63
2022-09-07T00:43:31.144Z,3.28
2022-09-07T00:46:00.832Z,3.40
2022-09-07T00:48:34.927Z,2.83
2022-09-07T00:51:09.401Z,3.45
2022-09-07T00:53:41.981Z,3.08
2022-09-07T00:56:12.067Z,3.45
2022-09-07T00:58:44.961Z,3.42
2022-09-07T01:01:16.784Z,2.92
2022-09-07T01:03:48.145Z,2.92
2022-09-07T01:06:18.876Z,3.05
2022-09-07T01:08:49.730Z,3.28
2022-09-07T01:11:19.387Z,3.67
2022-09-07T01:13:49.129Z,2.90
2022-09-07T01:16:33.003Z,2.92
2022-09-07T01:19:17.658Z,2.97
2022-09-07T01:22:00.375Z,3.60
2022-09-07T01:24:43.993Z,3.47
2022-09-07T01:27:52.856Z,3.10
2022-09-07T01:30:23.049Z,3.10
2022-09-07T01:33:11.528Z,3.30
2022-09-07T01:35:46.299Z,3.50
2022-09-07T01:38:22.560Z,3.88
2022-09-07T01:40:54.667Z,3.80
2022-09-07T01:43:30.790Z,3.50
2022-09-07T01:46:02.509Z,3.85
2022-09-07T01:48:34.551Z,3.20
2022-09-07T01:51:04.677Z,2.97
2022-09-07T01:53:36.993Z,3.40
2022-09-07T01:56:10.056Z,3.13
2022-09-07T01:58:44.292Z,3.30
2022-09-07T02:01:15.262Z,3.53
2022-09-07T02:03:48.285Z,3.47
2022-09-07T02:06:21.514Z,3.35
2022-09-07T02:08:56.684Z,3.27
2022-09-07T02:11:30.205Z,3.30
2022-09-07T02:14:01.845Z,3.33
2022-09-07T02:16:31.324Z,3.67
2022-09-07T02:19:05.366Z,3.67
2022-09-07T02:21:38.091Z,3.88
2022-09-07T02:24:10.858Z,3.20
2022-09-07T02:26:42.954Z,3.58
2022-09-07T02:29:12.223Z,3.85
2022-09-07T02:31:40.109Z,3.47
2022-09-07T02:34:08.531Z,3.60
2022-09-07T02:36:41.320Z,3.40
2022-09-07T02:39:09.251Z,3.72
2022-09-07T02:41:39.392Z,3.63
2022-09-07T02:44:12.063Z,3.05
2022-09-07T02:46:59.506Z,3.45
2022-09-07T02:49:40.332Z,3.53
2022-09-07T02:52:19.241Z,3.42
2022-09-07T02:54:59.050Z,3.72
2022-09-07T02:57:37.499Z,3.17
2022-09-07T03:00:11.113Z,3.13
2022-09-07T03:02:47.684Z,3.30
2022-09-07T03:05:20.933Z,3.45
2022-09-07T03:07:55.528Z,3.42
2022-09-07T03:10:24.350Z,3.05
2022-09-07T03:12:52.748Z,3.70
2022-09-07T03:15:23.574Z,3.50
2022-09-07T03:17:53.134Z,3.65
2022-09-07T03:20:22.296Z,3.53
2022-09-07T03:22:52.121Z,3.72
2022-09-07T03:25:21.962Z,3.33
2022-09-07T03:27:49.758Z,7.20
2022-09-07T03:30:17.942Z,3.42
2022-09-07T03:32:45.994Z,3.60
2022-09-07T03:35:15.348Z,3.58
2022-09-07T03:37:43.194Z,3.22
2022-09-07T03:40:13.361Z,3.50
2022-09-07T03:42:41.977Z,3.80
2022-09-07T03:45:11.267Z,3.25
2022-09-07T03:47:41.124Z,3.50
2022-09-07T03:50:09.770Z,3.35
2022-09-07T03:52:39.487Z,4.05
2022-09-07T03:55:07.739Z,3.58
2022-09-07T03:57:36.121Z,3.83
2022-09-07T04:00:05.484Z,3.75
2022-09-07T04:02:40.364Z,3.72
2022-09-07T04:05:11.561Z,4.07
2022-09-07T04:07:40.935Z,3.92
2022-09-07T04:10:09.908Z,4.10
2022-09-07T04:12:37.789Z,3.45
2022-09-07T04:15:06.484Z,4.03
2022-09-07T04:17:34.282Z,3.75
2022-09-07T04:20:02.705Z,4.55
2022-09-07T04:22:30.786Z,3.83
2022-09-07T04:25:00.016Z,3.85
2022-09-07T04:27:27.882Z,3.22
2022-09-07T04:29:55.676Z,3.92
2022-09-07T04:32:23.551Z,3.60
2022-09-07T04:34:51.936Z,3.55
2022-09-07T04:37:19.753Z,3.45
2022-09-07T04:39:47.663Z,4.18
2022-09-07T04:42:16.989Z,3.92
2022-09-07T04:44:45.243Z,3.50
2022-09-07T04:47:13.035Z,3.50
2022-09-07T04:49:41.163Z,3.80
2022-09-07T04:52:09.018Z,3.35
2022-09-07T04:54:36.811Z,3.00
2022-09-07T04:57:04.771Z,3.25
2022-09-07T04:59:34.028Z,3.05
2022-09-07T05:02:04.458Z,3.38
2022-09-07T05:04:32.304Z,3.28
2022-09-07T05:07:00.087Z,3.90
2022-09-07T05:09:28.021Z,3.08
2022-09-07T05:11:55.943Z,3.33
2022-09-07T05:14:23.934Z,3.80
2022-09-07T05:16:54.364Z,3.92
2022-09-07T05:19:22.233Z,3.47
2022-09-07T05:21:50.135Z,3.78
2022-09-07T05:24:17.975Z,3.60
2022-09-07T05:26:45.817Z,3.42
2022-09-07T05:32:03.188Z,3.47
2022-09-07T05:34:31.500Z,4.03
2022-09-07T05:37:02.919Z,3.92
2022-09-07T05:39:31.054Z,4.30
2022-09-07T05:41:59.001Z,4.03
2022-09-07T05:47:11.457Z,4.45
2022-09-07T05:49:39.295Z,6.18
2022-09-07T05:52:08.160Z,5.53
2022-09-07T05:54:36.189Z,5.28
2022-09-07T05:57:07.396Z,4.82
2022-09-07T05:59:35.441Z,5.05
2022-09-07T06:02:03.426Z,4.93
2022-09-07T06:04:33.664Z,5.05
2022-09-07T06:12:37.988Z,4.57
2022-09-07T06:15:06.603Z,4.25
2022-09-07T06:17:35.566Z,4.10
2022-09-07T06:20:05.629Z,4.10
2022-09-07T06:22:36.116Z,4.15
2022-09-07T06:25:04.612Z,4.18
2022-09-07T06:27:32.411Z,3.78
2022-09-07T06:30:00.246Z,4.03
2022-09-07T06:32:44.401Z,4.22
2022-09-07T06:35:15.605Z,3.95
2022-09-07T06:37:44.068Z,4.32
2022-09-07T06:40:12.893Z,4.35
2022-09-07T06:42:40.876Z,3.78
2022-09-07T06:45:11.420Z,3.78
2022-09-07T06:47:39.884Z,3.88
2022-09-07T06:50:08.821Z,3.90
2022-09-07T06:55:27.533Z,4.13
2022-09-07T06:57:55.459Z,3.90
2022-09-07T07:00:25.006Z,4.18
2022-09-07T07:02:52.995Z,4.00
2022-09-07T07:05:20.992Z,3.72
2022-09-07T07:07:50.485Z,3.85
2022-09-07T07:10:23.594Z,3.35
2022-09-07T07:15:21.116Z,3.55
2022-09-07T07:17:56.089Z,3.08
2022-09-07T07:20:26.905Z,3.03
2022-09-07T07:22:56.155Z,3.30
2022-09-07T07:25:24.185Z,2.83
2022-09-07T07:27:52.115Z,2.63
2022-09-07T07:30:21.014Z,3.08
2022-09-07T07:32:49.376Z,3.15
2022-09-07T07:35:17.346Z,2.38
2022-09-07T07:37:45.219Z,2.67
2022-09-07T07:40:15.605Z,2.28
2022-09-07T07:42:44.712Z,2.45
2022-09-07T07:48:01.136Z,3.03
2022-09-07T07:50:31.072Z,2.63
2022-09-07T07:55:49.146Z,2.70
2022-09-07T07:58:17.144Z,2.50
2022-09-07T08:00:55.476Z,2.90
2022-09-07T08:03:24.916Z,2.50
2022-09-07T08:05:53.096Z,2.67
2022-09-07T08:08:24.099Z,2.33
2022-09-07T08:10:53.492Z,3.03
2022-09-07T08:13:21.754Z,2.30
2022-09-07T08:15:50.215Z,2.50
2022-09-07T08:18:18.624Z,2.20
2022-09-07T08:20:46.400Z,2.20
2022-09-07T08:23:15.134Z,1.98
2022-09-07T08:25:50.699Z,1.30
2022-09-07T08:28:20.158Z,2.63
2022-09-07T08:30:48.004Z,2.15
2022-09-07T08:33:17.645Z,2.50
2022-09-07T08:35:56.225Z,1.90
2022-09-07T08:38:24.064Z,2.53
2022-09-07T08:40:54.977Z,1.98
2022-09-07T08:43:50.249Z,2.38
2022-09-07T08:46:29.797Z,2.63
2022-09-07T08:49:01.379Z,2.17
2022-09-07T08:51:38.153Z,1.80
2022-09-07T08:54:11.700Z,2.30
2022-09-07T08:57:20.453Z,2.55
2022-09-07T08:59:40.192Z,2.40
2022-09-07T09:02:32.602Z,1.90
2022-09-07T09:05:18.264Z,2.13
2022-09-07T09:07:57.469Z,2.17
2022-09-07T09:10:35.904Z,1.77
2022-09-07T09:13:14.250Z,1.50
2022-09-07T09:16:02.526Z,1.63
2022-09-07T09:18:58.280Z,2.63
2022-09-07T09:21:27.045Z,2.05
2022-09-07T09:24:01.260Z,1.90
2022-09-07T09:26:31.634Z,1.90
2022-09-07T09:29:13.975Z,1.83
2022-09-07T09:31:43.196Z,2.03
2022-09-07T09:34:14.104Z,1.90
2022-09-07T09:36:46.101Z,2.20
2022-09-07T09:39:33.024Z,1.90
2022-09-07T09:42:15.217Z,2.10
2022-09-07T09:44:44.231Z,1.90
2022-09-07T09:47:31.372Z,1.90
2022-09-07T09:50:02.029Z,1.98
2022-09-07T09:52:47.735Z,1.90
2022-09-07T09:55:35.004Z,1.98
2022-09-07T10:03:59.116Z,1.88
2022-09-07T10:06:30.589Z,1.70
2022-09-07T10:09:00.678Z,1.90
2022-09-07T10:12:07.150Z,1.90
2022-09-07T10:14:43.156Z,2.00
2022-09-07T10:17:23.422Z,2.22
2022-09-07T10:19:52.736Z,1.88
2022-09-07T10:22:32.153Z,1.75
2022-09-07T10:25:01.191Z,1.83
2022-09-07T10:27:34.657Z,1.90
2022-09-07T10:30:06.701Z,2.00
2022-09-07T10:32:51.999Z,2.15
2022-09-07T10:35:30.932Z,2.17
2022-09-07T10:38:11.413Z,2.08
2022-09-07T10:40:43.959Z,1.83
2022-09-07T10:43:30.772Z,1.77
2022-09-07T10:49:20.424Z,1.75
2022-09-07T10:52:01.881Z,2.22
2022-09-07T10:54:38.662Z,1.70
2022-09-07T10:57:25.446Z,1.80
2022-09-07T11:00:11.105Z,1.23
2022-09-07T11:05:55.826Z,1.50
2022-09-07T11:09:15.155Z,2.08
2022-09-07T11:14:19.315Z,1.67
2022-09-07T11:16:54.144Z,1.50
2022-09-07T11:19:41.795Z,1.45
2022-09-07T11:22:20.427Z,1.63
2022-09-07T11:27:48.182Z,1.30
2022-09-07T11:30:24.578Z,1.60
2022-09-07T11:33:06.089Z,1.40
2022-09-07T11:35:45.759Z,1.40
2022-09-07T11:38:26.481Z,1.08
2022-09-07T11:41:05.996Z,1.23
2022-09-07T11:43:42.346Z,0.77
2022-09-07T11:46:15.664Z,1.20
2022-09-07T11:48:46.791Z,1.13
2022-09-07T11:51:21.079Z,1.48
2022-09-07T11:53:57.102Z,1.95
2022-09-07T11:56:36.348Z,1.40
2022-09-07T11:59:27.936Z,1.10
2022-09-07T12:02:17.393Z,1.20
2022-09-07T12:05:03.867Z,1.10
2022-09-07T12:07:44.616Z,1.20
2022-09-07T12:10:33.926Z,1.13
2022-09-07T12:13:40.240Z,1.35
2022-09-07T12:16:16.538Z,1.50
2022-09-07T12:19:12.959Z,1.10
2022-09-07T12:21:43.280Z,1.08
2022-09-07T12:24:40.864Z,1.30
2022-09-07T12:27:26.375Z,1.10
2022-09-07T12:30:29.048Z,1.23
2022-09-07T12:33:19.498Z,1.10
2022-09-07T12:35:47.286Z,1.20
2022-09-07T12:38:57.715Z,1.10
2022-09-07T12:41:41.047Z,1.45
2022-09-07T12:44:16.866Z,1.40
2022-09-07T12:47:25.249Z,1.38
2022-09-07T12:50:14.024Z,1.13
2022-09-07T12:53:13.467Z,1.40
2022-09-07T12:59:17.501Z,1.40
2022-09-07T13:01:58.722Z,1.17
2022-09-07T13:04:43.921Z,1.50
2022-09-07T13:08:04.308Z,1.48
2022-09-07T13:10:38.143Z,1.30
2022-09-07T13:13:07.890Z,1.52
2022-09-07T13:15:41.481Z,1.30
2022-09-07T13:18:17.081Z,1.38
2022-09-07T13:20:45.083Z,2.00
2022-09-07T13:23:32.123Z,1.77
2022-09-07T13:26:01.961Z,1.42
2022-09-07T13:29:01.279Z,1.80
2022-09-07T13:31:54.653Z,1.60
2022-09-07T13:34:49.307Z,1.20
2022-09-07T13:37:21.465Z,1.40
2022-09-07T13:42:25.967Z,1.50
2022-09-07T13:44:59.187Z,1.10
2022-09-07T13:47:36.030Z,1.48
2022-09-07T13:50:17.079Z,1.30
2022-09-07T13:53:07.871Z,1.50
2022-09-07T13:55:41.850Z,1.48
2022-09-07T13:58:22.172Z,1.45
2022-09-07T14:00:54.779Z,1.30
2022-09-07T14:03:25.037Z,1.17
2022-09-07T14:06:26.145Z,1.60
2022-09-07T14:08:56.131Z,1.20
2022-09-07T14:11:27.429Z,1.30
2022-09-07T14:14:13.635Z,1.45
2022-09-07T14:16:43.832Z,1.50
2022-09-07T14:19:14.315Z,1.30
2022-09-07T14:21:42.081Z,1.45
2022-09-07T14:24:21.574Z,1.60
2022-09-07T14:26:50.767Z,1.40
2022-09-07T14:29:30.064Z,1.80
2022-09-07T14:32:01.954Z,1.65
2022-09-07T14:34:36.906Z,1.60
2022-09-07T14:37:08.186Z,1.60
2022-09-07T14:39:39.690Z,1.73
2022-09-07T14:42:12.148Z,1.48
2022-09-07T14:44:43.064Z,1.30
2022-09-07T14:47:24.710Z,1.35
2022-09-07T14:49:53.165Z,1.50
2022-09-07T14:52:26.393Z,1.33
2022-09-07T14:54:54.621Z,1.48
2022-09-07T14:57:39.390Z,1.40
2022-09-07T15:00:21.558Z,2.25
2022-09-07T15:02:49.328Z,1.52
2022-09-07T15:05:22.482Z,1.52
2022-09-07T15:07:52.829Z,1.30
2022-09-07T15:10:31.310Z,1.45
2022-09-07T15:13:01.882Z,1.30
2022-09-07T15:15:32.406Z,1.40
2022-09-07T15:18:07.760Z,1.27
2022-09-07T15:20:39.629Z,1.30
2022-09-07T15:23:11.410Z,1.38
2022-09-07T15:25:40.645Z,1.55
2022-09-07T15:33:59.943Z,1.70
2022-09-07T15:36:28.786Z,1.88
2022-09-07T15:39:00.062Z,1.98
2022-09-07T15:41:29.172Z,1.92
2022-09-07T15:43:58.262Z,2.40
2022-09-07T15:46:29.151Z,1.77
2022-09-07T15:48:58.261Z,1.67
2022-09-07T15:54:17.536Z,1.90
2022-09-07T15:59:37.834Z,1.65
2022-09-07T16:03:04.759Z,1.80
2022-09-07T16:04:55.387Z,1.60
2022-09-07T16:08:24.935Z,1.80
2022-09-07T16:10:11.571Z,1.60
2022-09-07T16:15:28.535Z,1.67
2022-09-07T16:17:56.257Z,2.00
2022-09-07T16:20:24.117Z,1.60
2022-09-07T16:25:42.220Z,1.65
2022-09-07T16:28:11.678Z,1.80
2022-09-07T16:30:41.896Z,2.22
2022-09-07T16:33:09.631Z,1.77
2022-09-07T16:35:37.379Z,1.30
2022-09-07T16:40:52.793Z,1.48
2022-09-07T16:43:20.986Z,1.50
2022-09-07T16:46:05.281Z,1.70
2022-09-07T16:48:35.052Z,1.80
2022-09-07T16:51:03.017Z,1.40
2022-09-07T16:53:32.463Z,1.75
2022-09-07T16:56:04.895Z,2.47
2022-09-07T16:58:47.639Z,1.70
2022-09-07T17:01:19.242Z,1.90
2022-09-07T17:03:49.341Z,1.52
2022-09-07T17:06:19.052Z,1.50
2022-09-07T17:08:47.049Z,1.70
2022-09-07T17:11:17.017Z,1.88
2022-09-07T17:13:45.575Z,1.60
2022-09-07T17:16:15.357Z,1.50
2022-09-07T17:21:37.154Z,1.90
2022-09-07T17:24:07.565Z,2.03
2022-09-07T17:26:36.332Z,1.67
2022-09-07T17:29:04.234Z,2.30
2022-09-07T17:34:25.080Z,3.00
2022-09-07T17:36:55.593Z,1.90
2022-09-07T17:39:23.337Z,2.00
2022-09-07T17:41:53.262Z,2.50
2022-09-07T17:44:21.195Z,1.38
2022-09-07T17:46:48.848Z,1.30
2022-09-07T17:49:17.681Z,1.75
2022-09-07T17:51:47.268Z,1.67
2022-09-07T17:54:17.525Z,1.60
2022-09-07T17:56:45.852Z,1.55
2022-09-07T18:02:01.937Z,1.95
2022-09-07T18:04:29.875Z,1.23
2022-09-07T18:06:58.968Z,1.42
2022-09-07T18:09:26.648Z,1.30
2022-09-07T18:11:54.348Z,0.98
2022-09-07T18:14:22.227Z,1.33
2022-09-07T18:16:50.734Z,1.45
2022-09-07T18:19:19.034Z,1.50
2022-09-07T18:21:47.815Z,1.52
2022-09-07T18:24:19.534Z,1.92
2022-09-07T18:26:50.991Z,2.50
2022-09-07T18:29:33.995Z,1.98
2022-09-07T18:32:04.624Z,2.00
2022-09-07T18:34:33.731Z,2.50
2022-09-07T18:37:02.351Z,2.00
2022-09-07T18:39:32.771Z,2.35
2022-09-07T18:42:00.481Z,2.13
2022-09-07T18:47:23.252Z,1.70
2022-09-07T18:49:55.446Z,2.30
2022-09-07T18:55:15.622Z,2.00
2022-09-07T18:57:43.443Z,1.90
2022-09-07T19:00:13.113Z,2.00
2022-09-07T19:02:40.932Z,1.92
2022-09-07T19:08:03.770Z,1.90
2022-09-07T19:10:35.961Z,1.60
2022-09-07T19:13:04.333Z,1.80
2022-09-07T19:15:37.112Z,1.65
2022-09-07T19:18:06.262Z,1.70
2022-09-07T19:20:34.914Z,1.70
2022-09-07T19:23:07.192Z,1.58
2022-09-07T19:25:41.064Z,1.75
2022-09-07T19:28:09.169Z,1.55
2022-09-07T19:30:37.264Z,1.58
2022-09-07T19:33:09.785Z,1.70
2022-09-07T19:35:37.852Z,1.50
2022-09-07T19:38:05.657Z,1.75
2022-09-07T19:40:36.041Z,1.70
2022-09-07T19:43:05.721Z,2.00
2022-09-07T19:45:33.498Z,1.40
2022-09-07T19:48:01.602Z,1.35
2022-09-07T19:50:29.324Z,1.55
2022-09-07T19:52:57.005Z,1.63
2022-09-07T19:55:24.691Z,1.75
2022-09-07T19:57:52.442Z,1.50
2022-09-07T20:00:22.568Z,2.35
2022-09-07T20:02:56.990Z,2.60
2022-09-07T20:05:29.082Z,2.08
2022-09-07T20:07:56.831Z,2.22
2022-09-07T20:10:24.579Z,1.90
2022-09-07T20:12:52.305Z,1.98
2022-09-07T20:15:21.427Z,1.80
2022-09-07T20:17:49.136Z,1.92
2022-09-07T20:20:17.160Z,2.05
2022-09-07T20:22:44.996Z,1.85
2022-09-07T20:25:13.345Z,2.17
2022-09-07T20:27:41.406Z,2.10
2022-09-07T20:30:10.742Z,1.98
2022-09-07T20:32:40.807Z,2.20
2022-09-07T20:35:09.312Z,2.17
2022-09-07T20:37:37.231Z,1.88
2022-09-07T20:40:06.331Z,2.00
2022-09-07T20:42:34.292Z,2.17
2022-09-07T20:45:02.210Z,2.30
2022-09-07T20:47:30.271Z,2.08
2022-09-07T20:49:59.443Z,2.10
2022-09-07T20:52:27.636Z,2.58
2022-09-07T20:54:55.377Z,2.40
2022-09-07T20:57:23.140Z,2.22
2022-09-07T20:59:50.854Z,2.60
2022-09-07T21:02:18.607Z,2.75
2022-09-07T21:04:46.373Z,2.50
2022-09-07T21:07:15.398Z,2.65
2022-09-07T21:09:43.151Z,2.63
2022-09-07T21:12:10.899Z,2.42
2022-09-07T21:14:38.647Z,2.45
2022-09-07T21:17:06.656Z,2.40
2022-09-07T21:19:34.534Z,2.50
2022-09-07T21:22:02.255Z,2.47
2022-09-07T21:24:31.359Z,2.80
2022-09-07T21:26:59.076Z,2.40
2022-09-07T21:29:26.857Z,2.42
2022-09-07T21:31:55.507Z,1.92
2022-09-07T21:34:23.893Z,1.95
2022-09-07T21:36:52.063Z,2.33
2022-09-07T21:39:20.721Z,3.63
2022-09-07T21:41:49.902Z,2.33
2022-09-07T21:44:17.626Z,1.90
2022-09-07T21:46:45.452Z,2.30
2022-09-07T21:49:13.290Z,1.65
2022-09-07T21:51:41.012Z,1.90
2022-09-07T21:54:09.303Z,2.00
2022-09-07T21:56:37.507Z,1.90
2022-09-07T21:59:06.595Z,2.03
2022-09-07T22:01:34.433Z,2.13
2022-09-07T22:04:04.138Z,1.77
2022-09-07T22:06:33.125Z,1.80
2022-09-07T22:09:01.923Z,1.50
2022-09-07T22:11:30.925Z,1.90
2022-09-07T22:14:00.448Z,1.63
2022-09-07T22:16:29.922Z,2.53
2022-09-07T22:18:57.658Z,2.00
2022-09-07T22:21:27.480Z,2.10
2022-09-07T22:23:57.281Z,2.20
2022-09-07T22:26:27.626Z,1.85
2022-09-07T22:28:55.690Z,1.92
2022-09-07T22:31:25.610Z,2.00
2022-09-07T22:33:56.662Z,2.00
2022-09-07T22:36:25.924Z,2.00
2022-09-07T22:38:55.091Z,2.10
2022-09-07T22:41:25.422Z,2.28
2022-09-07T22:43:53.115Z,3.00
2022-09-07T22:46:23.799Z,2.45
2022-09-07T22:48:52.475Z,2.40
2022-09-07T22:51:21.889Z,2.28
2022-09-07T22:53:49.578Z,2.10
2022-09-07T22:56:20.434Z,2.20
2022-09-07T22:58:49.604Z,2.20
2022-09-07T23:01:17.879Z,2.30
2022-09-07T23:03:46.217Z,2.78
2022-09-07T23:06:23.987Z,2.47
2022-09-07T23:08:52.328Z,2.10
2022-09-07T23:11:20.684Z,2.30
2022-09-07T23:13:51.838Z,2.40
2022-09-07T23:16:19.975Z,1.90
2022-09-07T23:18:48.258Z,2.05
2022-09-07T23:21:16.673Z,2.25
2022-09-07T23:23:49.936Z,2.15
2022-09-07T23:26:17.752Z,2.67
2022-09-07T23:28:45.523Z,2.05
2022-09-07T23:31:13.453Z,2.10
2022-09-07T23:33:41.306Z,2.60
2022-09-07T23:36:09.183Z,2.58
2022-09-07T23:38:36.952Z,2.10
2022-09-07T23:41:06.393Z,2.95
2022-09-07T23:43:34.247Z,2.67
2022-09-07T23:46:02.185Z,2.90
2022-09-07T23:48:30.048Z,2.25
2022-09-07T23:50:57.796Z,2.00
2022-09-07T23:53:25.935Z,3.00
2022-09-07T23:55:54.205Z,3.40
2022-09-07T23:58:24.065Z,3.03
